ドバイ国際空港の過去48時間の天気

ドバイ国際空港 (Dubai International Airport)

現在時刻: 1/23 05:14 +04 (1/23 01:14 UTC) 以下の時間は現地時間です。

過去48時間のMETAR気象情報
時間 風向 風速(m/s) 視程 気温(℃) 湿度(%) 気圧(hPa) 天気現象
23 05:00 不定 2 10km以上 16 68 1019
23 04:00 2 10km以上 16 72 1019
23 03:00 2 10km以上 16 72 1019
23 02:00 不定 1 10km以上 17 63 1019
23 01:00 南東 3 10km以上 17 68 1019
23 00:00 南東 4 10km以上 17 68 1019
22 23:00 南東 4 10km以上 18 64 1019
22 22:00 3 10km以上 19 64 1019
22 21:00 3 10km以上 20 60 1019
22 20:00 西南西 2 10km以上 20 60 1019
22 19:00 西南西 3 10km以上 21 56 1018
22 18:00 西 5 10km以上 21 56 1018
22 17:00 西 6 10km以上 21 56 1017
22 16:00 西 5 10km以上 22 53 1017
22 15:00 西北西 6 10km以上 22 53 1017
22 14:00 西 6 10km以上 22 50 1017
22 13:00 西 6 10km以上 22 53 1018
22 12:00 北西 7 10km以上 22 50 1019
22 11:00 西 6 10km以上 21 56 1020
22 10:00 西 6 10km以上 21 56 1020
22 09:00 西北西 6 10km以上 20 56 1019
22 08:00 西 4 10km以上 20 60 1019
22 07:00 西 4 10km以上 20 60 1018
22 06:00 西 5 10km以上 20 60 1018
22 05:00 西 4 10km以上 20 60 1017
22 04:00 西 5 10km以上 20 60 1017
22 03:00 西北西 5 10km以上 20 60 1017
22 02:00 西 5 10km以上 20 60 1017
22 01:00 西 7 10km以上 20 60 1018
22 00:00 西北西 8 10km以上 20 60 1018
21 23:00 西 7 10km以上 21 56 1018
21 22:00 西 6 10km以上 21 56 1018
21 21:00 西 6 10km以上 21 64 1018
21 20:00 西 7 10km以上 22 65 1017
21 19:00 西 7 10km以上 22 73 1017
21 18:00 西北西 6 10km以上 23 73 1017
21 17:00 西 7 10km以上 23 73 1016
21 16:00 西 7 10km以上 23 78 1016
21 15:00 西 5 10km以上 23 73 1016
21 14:00 西 4 10km以上 23 65 1016
21 13:00 西北西 5 10km以上 23 69 1017
21 12:00 西 2 8000m 22 73 1018
21 11:00 西南西 3 5000m 19 88 1018 煙霧
21 10:00 2 800m 17 94 1018
21 09:45 2 500m 17 94 1018
21 09:14 2 300m 16 100 1018
21 09:00 2 200m 16 100 1018
21 08:00 2 200m 16 94 1017
21 07:00 3 300m 15 100 1017
21 06:00 南南西 3 350m 15 100 1017
21 05:41 3 350m 15 100 1016
OMDB 230100Z VRB04KT CAVOK 16/10 Q1019 NOSIG
OMDB 230000Z 10003KT CAVOK 16/11 Q1019 NOSIG
OMDB 222300Z 09003KT 040V110 CAVOK 16/11 Q1019 NOSIG
OMDB 222200Z VRB02KT CAVOK 17/10 Q1019 NOSIG
OMDB 222100Z 13005KT 110V170 CAVOK 17/11 Q1019 NOSIG
OMDB 222000Z 14007KT CAVOK 17/11 Q1019 NOSIG
OMDB 221900Z 14007KT 9999 FEW030 18/11 Q1019 NOSIG
OMDB 221800Z 17005KT 9999 FEW030 19/12 Q1019 NOSIG
OMDB 221700Z 18005KT 9999 FEW033 20/12 Q1019 NOSIG
OMDB 221600Z 25004KT 9999 SCT033 20/12 Q1019 NOSIG
OMDB 221500Z 25006KT 190V280 9999 SCT033 21/12 Q1018 NOSIG
OMDB 221400Z 27009KT 200V310 9999 SCT033 21/12 Q1018 NOSIG
OMDB 221300Z 28011KT 9999 FEW033 21/12 Q1017 NOSIG
OMDB 221200Z 27010KT 9999 FEW033 22/12 Q1017 NOSIG
OMDB 221100Z 29011KT 220V330 9999 FEW033 22/12 Q1017 NOSIG
OMDB 221000Z 28011KT 9999 FEW033 22/11 Q1017 NOSIG
OMDB 220900Z 28011KT 9999 SCT033 22/12 Q1018 NOSIG
OMDB 220800Z 31013KT 9999 SCT033 22/11 Q1019 NOSIG
OMDB 220700Z 28012KT 260V340 9999 BKN033 21/12 Q1020 NOSIG
OMDB 220600Z 28012KT 260V330 9999 BKN033 21/12 Q1020 NOSIG
OMDB 220500Z 29012KT 260V320 9999 BKN035 20/11 Q1019 NOSIG
OMDB 220400Z 28008KT 250V310 9999 BKN033 20/12 Q1019 NOSIG
OMDB 220300Z 27007KT 230V290 9999 BKN033 20/12 Q1018 NOSIG
OMDB 220200Z 28010KT 9999 BKN033 20/12 Q1018 NOSIG
OMDB 220100Z 27008KT 9999 BKN033 20/12 Q1017 NOSIG
OMDB 220000Z 28009KT 9999 BKN033 20/12 Q1017 NOSIG
OMDB 212300Z 29010KT 260V330 9999 BKN033 20/12 Q1017 NOSIG
OMDB 212200Z 28010KT 9999 SCT033 20/12 Q1017 NOSIG
OMDB 212100Z 28013KT 9999 SCT033 20/12 Q1018 NOSIG
OMDB 212000Z 29016KT 9999 FEW030 20/12 Q1018 NOSIG
OMDB 211900Z 28014KT 250V320 9999 FEW030 21/12 Q1018 NOSIG
OMDB 211800Z 28012KT CAVOK 21/12 Q1018 NOSIG
OMDB 211700Z 28011KT CAVOK 21/14 Q1018 NOSIG
OMDB 211600Z 28014KT 9999 FEW023 22/15 Q1017 NOSIG
OMDB 211500Z 28013KT 9999 FEW022 22/17 Q1017 NOSIG
OMDB 211400Z 29012KT 9999 FEW020 23/18 Q1017 NOSIG
OMDB 211300Z 28014KT 9999 BKN020 23/18 Q1016 NOSIG
OMDB 211200Z 28013KT 9999 BKN016 23/19 Q1016 NOSIG
OMDB 211100Z 26010KT 210V300 9999 FEW017 23/18 Q1016 NOSIG
OMDB 211000Z 27008KT 240V300 9999 FEW020 23/16 Q1016 NOSIG
OMDB 210900Z 29010KT 9999 FEW040 23/17 Q1017 NOSIG
OMDB 210800Z 27003KT 200V310 8000 NSC 22/17 Q1018 NOSIG
OMDB 210700Z 25005KT 5000 HZ NSC 19/17 Q1018 BECMG 7000 NSW
OMDB 210600Z 17004KT 140V230 0800 R12L/P2000N FG NSC 17/16 Q1018 BECMG 1500 BR
OMDB 210545Z 18004KT 150V230 0500 R12L/1800U FG VV002 17/16 Q1018 BECMG 0800
OMDB 210514Z 19003KT 140V220 0300 R12L/0900N FG VV001 16/16 Q1018 BECMG 0800
OMDB 210500Z 18003KT 140V240 0200 R12L/0500N FG VV001 16/16 Q1018 BECMG 0800
OMDB 210400Z 17004KT 0200 R12L/0350N FG VV001 16/15 Q1017 NOSIG
OMDB 210300Z 18005KT 0300 R12L/0450N FG VV001 15/15 Q1017 BECMG 0200 VV///
OMDB 210200Z 20005KT 170V270 0350 R12L/0450N FG VV001 15/15 Q1017 BECMG 0200 VV///
OMDB 210141Z 19005KT 0350 R12L/0450D FG VV001 15/15 Q1016 BECMG 0200 VV///